createdAt,value
2018-09-27T00:01:40.610Z,52.50
2018-09-27T00:04:08.640Z,52.02
2018-09-27T00:06:36.689Z,51.72
2018-09-27T00:09:05.396Z,51.56
2018-09-27T00:11:33.365Z,51.54
2018-09-27T00:14:01.584Z,51.58
2018-09-27T00:16:29.672Z,52.15
2018-09-27T00:18:57.778Z,52.17
2018-09-27T00:21:25.764Z,52.08
2018-09-27T00:23:53.806Z,52.17
2018-09-27T00:26:21.770Z,51.87
2018-09-27T00:28:49.920Z,51.84
2018-09-27T00:31:17.972Z,51.72
2018-09-27T00:33:45.956Z,51.70
2018-09-27T00:36:13.990Z,51.82
2018-09-27T00:38:42.076Z,51.79
2018-09-27T00:41:10.081Z,51.70
2018-09-27T00:43:38.080Z,52.28
2018-09-27T00:46:06.570Z,51.90
2018-09-27T00:48:34.545Z,50.97
2018-09-27T00:51:02.540Z,51.82
2018-09-27T00:53:30.504Z,50.82
2018-09-27T00:55:58.518Z,51.70
2018-09-27T00:58:26.518Z,50.80
2018-09-27T01:00:54.589Z,51.61
2018-09-27T01:03:22.604Z,51.19
2018-09-27T01:05:50.540Z,51.55
2018-09-27T01:08:18.568Z,51.78
2018-09-27T01:10:46.489Z,51.41
2018-09-27T01:13:14.556Z,51.63
2018-09-27T01:15:42.496Z,51.87
2018-09-27T01:18:10.516Z,51.02
2018-09-27T01:20:38.494Z,51.46
2018-09-27T01:23:06.707Z,51.71
2018-09-27T01:25:34.619Z,51.36
2018-09-27T01:28:02.585Z,51.61
2018-09-27T01:30:30.640Z,51.42
2018-09-27T01:32:58.620Z,51.30
2018-09-27T01:35:26.572Z,50.84
2018-09-27T01:37:54.666Z,51.02
2018-09-27T01:40:22.690Z,51.46
2018-09-27T01:42:50.589Z,51.39
2018-09-27T01:45:18.638Z,51.51
2018-09-27T01:47:53.354Z,51.37
2018-09-27T01:50:21.353Z,52.04
2018-09-27T01:52:49.258Z,51.60
2018-09-27T01:55:17.241Z,51.60
2018-09-27T01:57:45.288Z,52.14
2018-09-27T02:00:13.405Z,52.14
2018-09-27T02:02:41.343Z,51.63
2018-09-27T02:05:09.445Z,52.37
2018-09-27T02:07:37.472Z,52.31
2018-09-27T02:10:05.516Z,52.44
2018-09-27T02:12:33.514Z,52.30
2018-09-27T02:15:01.565Z,52.55
2018-09-27T02:17:29.580Z,52.15
2018-09-27T02:19:57.671Z,53.36
2018-09-27T02:22:25.660Z,53.24
2018-09-27T02:24:54.040Z,53.19
2018-09-27T02:27:22.088Z,54.31
2018-09-27T02:29:50.140Z,53.74
2018-09-27T02:32:18.096Z,53.93
2018-09-27T02:34:46.109Z,53.92
2018-09-27T02:37:14.085Z,54.21
2018-09-27T02:39:42.110Z,53.76
2018-09-27T02:42:10.119Z,54.34
2018-09-27T02:44:38.227Z,54.79
2018-09-27T02:47:06.229Z,54.41
2018-09-27T02:49:34.296Z,54.00
2018-09-27T02:52:02.268Z,54.38
2018-09-27T02:54:30.459Z,54.86
2018-09-27T02:56:58.460Z,54.04
2018-09-27T02:59:26.546Z,54.02
2018-09-27T03:01:54.541Z,54.16
2018-09-27T03:04:22.633Z,54.30
2018-09-27T03:06:50.629Z,54.37
2018-09-27T03:09:18.643Z,54.14
2018-09-27T03:11:46.675Z,54.45
2018-09-27T03:14:14.740Z,54.07
2018-09-27T03:16:42.728Z,53.86
2018-09-27T03:19:10.775Z,54.29
2018-09-27T03:21:38.915Z,53.93
2018-09-27T03:24:06.942Z,53.50
2018-09-27T03:26:35.038Z,53.61
2018-09-27T03:29:03.130Z,53.82
2018-09-27T03:31:31.207Z,53.38
2018-09-27T03:33:59.294Z,52.73
2018-09-27T03:36:27.403Z,52.95
2018-09-27T03:38:55.480Z,53.18
2018-09-27T03:41:23.485Z,52.68
2018-09-27T03:43:51.449Z,52.39
2018-09-27T03:46:19.461Z,52.13
2018-09-27T03:48:47.499Z,52.55
2018-09-27T03:51:15.720Z,52.54
2018-09-27T03:53:43.694Z,51.99
2018-09-27T03:56:11.725Z,51.74
2018-09-27T03:58:39.728Z,52.24
2018-09-27T04:01:08.178Z,51.41
2018-09-27T04:03:36.153Z,51.63
2018-09-27T04:06:04.214Z,51.87
2018-09-27T04:08:32.167Z,51.48
2018-09-27T04:11:00.192Z,51.86
2018-09-27T04:13:28.284Z,51.34
2018-09-27T04:15:56.330Z,52.34
2018-09-27T04:18:24.730Z,51.83
2018-09-27T04:20:53.339Z,51.52
2018-09-27T04:23:22.619Z,51.15
2018-09-27T04:25:51.451Z,51.69
2018-09-27T04:28:19.887Z,52.14
2018-09-27T04:30:48.020Z,51.96
2018-09-27T04:33:16.024Z,52.20
2018-09-27T04:35:44.061Z,52.17
2018-09-27T04:38:12.070Z,52.02
2018-09-27T04:40:40.268Z,51.71
2018-09-27T04:43:08.440Z,52.13
2018-09-27T04:45:36.963Z,51.76
2018-09-27T04:48:05.100Z,52.21
2018-09-27T04:50:33.288Z,52.02
2018-09-27T04:53:01.461Z,52.22
2018-09-27T04:55:29.661Z,52.48
2018-09-27T04:57:57.823Z,52.14
2018-09-27T05:00:25.948Z,52.49
2018-09-27T05:02:54.128Z,53.03
2018-09-27T05:05:22.419Z,52.39
2018-09-27T05:07:50.694Z,52.94
2018-09-27T05:10:18.842Z,51.96
2018-09-27T05:12:47.161Z,51.88
2018-09-27T05:15:15.366Z,52.30
2018-09-27T05:17:43.749Z,52.70
2018-09-27T05:20:12.080Z,52.09
2018-09-27T05:22:40.406Z,52.21
2018-09-27T05:25:08.828Z,51.88
2018-09-27T05:27:37.126Z,52.01
2018-09-27T05:30:05.500Z,51.70
2018-09-27T05:32:33.792Z,51.75
2018-09-27T05:35:02.012Z,51.37
2018-09-27T05:37:30.165Z,52.12
2018-09-27T05:39:58.425Z,52.06
2018-09-27T05:42:26.693Z,52.52
2018-09-27T05:44:55.174Z,51.77
2018-09-27T05:47:23.391Z,51.93
2018-09-27T05:49:51.644Z,52.24
2018-09-27T05:52:19.920Z,52.07
2018-09-27T05:54:48.105Z,52.11
2018-09-27T05:57:16.384Z,51.87
2018-09-27T05:59:44.523Z,51.96
2018-09-27T06:02:13.150Z,51.96
2018-09-27T06:04:41.344Z,52.27
2018-09-27T06:07:09.872Z,51.85
2018-09-27T06:09:38.181Z,52.24
2018-09-27T06:12:06.431Z,52.19
2018-09-27T06:14:35.038Z,52.22
2018-09-27T06:17:03.192Z,52.44
2018-09-27T06:19:31.502Z,52.03
2018-09-27T06:21:59.764Z,51.68
2018-09-27T06:24:28.119Z,51.96
2018-09-27T06:26:56.375Z,51.82
2018-09-27T06:29:24.575Z,51.58
2018-09-27T06:31:52.794Z,51.35
2018-09-27T06:34:21.063Z,52.51
2018-09-27T06:36:49.382Z,52.40
2018-09-27T06:39:17.588Z,52.15
2018-09-27T06:41:45.725Z,53.42
2018-09-27T06:44:14.005Z,53.81
2018-09-27T06:46:42.225Z,53.24
2018-09-27T06:49:10.464Z,53.47
2018-09-27T06:51:38.671Z,53.19
2018-09-27T06:54:06.962Z,52.42
2018-09-27T06:56:38.259Z,52.60
2018-09-27T06:59:06.602Z,50.48
2018-09-27T07:01:34.823Z,47.10
2018-09-27T07:04:03.155Z,45.05
2018-09-27T07:06:31.374Z,43.80
2018-09-27T07:08:59.595Z,41.33
2018-09-27T07:11:27.873Z,40.44
2018-09-27T07:13:56.185Z,38.92
2018-09-27T07:16:24.615Z,39.43
2018-09-27T07:18:53.091Z,39.56
2018-09-27T07:21:21.295Z,41.71
2018-09-27T07:23:49.542Z,44.13
2018-09-27T07:26:17.713Z,44.45
2018-09-27T07:28:46.094Z,46.46
2018-09-27T07:31:14.334Z,46.56
2018-09-27T07:33:42.660Z,47.20
2018-09-27T07:36:11.033Z,47.34
2018-09-27T07:38:40.416Z,47.40
2018-09-27T07:41:08.713Z,48.16
2018-09-27T07:43:37.419Z,48.21
2018-09-27T07:46:05.699Z,47.42
2018-09-27T07:48:34.006Z,47.02
2018-09-27T07:51:05.312Z,47.72
2018-09-27T07:53:33.684Z,46.96
2018-09-27T07:56:02.118Z,46.52
2018-09-27T07:58:30.325Z,44.64
2018-09-27T08:00:58.534Z,42.85
2018-09-27T08:03:26.798Z,43.11
2018-09-27T08:05:55.086Z,43.36
2018-09-27T08:08:23.333Z,43.34
2018-09-27T08:10:51.848Z,44.35
2018-09-27T08:13:20.273Z,43.43
2018-09-27T08:15:48.514Z,42.18
2018-09-27T08:18:16.874Z,43.19
2018-09-27T08:20:45.127Z,41.16
2018-09-27T08:23:13.386Z,40.75
2018-09-27T08:25:41.534Z,42.43
2018-09-27T08:28:09.777Z,42.37
2018-09-27T08:30:38.065Z,41.70
2018-09-27T08:33:06.308Z,42.46
2018-09-27T08:35:34.653Z,42.67
2018-09-27T08:38:02.854Z,43.22
2018-09-27T08:40:31.113Z,42.73
2018-09-27T08:42:59.334Z,42.06
2018-09-27T08:45:27.879Z,40.93
2018-09-27T08:47:58.666Z,42.01
2018-09-27T08:50:26.946Z,42.34
2018-09-27T08:52:55.106Z,43.97
2018-09-27T08:55:23.417Z,44.79
2018-09-27T08:57:51.727Z,43.52
2018-09-27T09:00:19.914Z,44.00
2018-09-27T09:02:48.550Z,45.14
2018-09-27T09:05:16.855Z,45.15
2018-09-27T09:07:45.084Z,44.99
2018-09-27T09:10:13.534Z,45.58
2018-09-27T09:12:41.905Z,45.89
2018-09-27T09:15:10.605Z,45.10
2018-09-27T09:17:38.865Z,46.43
2018-09-27T09:20:07.466Z,45.14
2018-09-27T09:22:35.646Z,45.38
2018-09-27T09:25:04.074Z,45.18
2018-09-27T09:27:32.317Z,45.20
2018-09-27T09:30:03.494Z,44.92
2018-09-27T09:32:31.766Z,44.71
2018-09-27T09:35:00.006Z,45.20
2018-09-27T09:37:28.106Z,44.69
2018-09-27T09:39:56.366Z,44.50
2018-09-27T09:42:24.557Z,45.05
2018-09-27T09:44:52.913Z,44.98
2018-09-27T09:47:21.133Z,44.92
2018-09-27T09:49:49.360Z,44.17
2018-09-27T09:52:17.526Z,44.06
2018-09-27T09:54:45.726Z,44.12
2018-09-27T09:57:13.953Z,43.28
2018-09-27T09:59:42.213Z,43.49
2018-09-27T10:02:10.434Z,43.55
2018-09-27T10:04:39.313Z,43.72
2018-09-27T10:07:07.426Z,44.76
2018-09-27T10:09:35.653Z,43.87
2018-09-27T10:12:03.934Z,43.22
2018-09-27T10:14:32.334Z,44.58
2018-09-27T10:17:00.509Z,43.70
2018-09-27T10:19:28.805Z,43.46
2018-09-27T10:21:57.023Z,43.17
2018-09-27T10:24:25.405Z,43.50
2018-09-27T10:26:53.733Z,43.03
2018-09-27T10:29:22.173Z,43.07
2018-09-27T10:31:50.346Z,44.38
2018-09-27T10:34:18.504Z,44.40
2018-09-27T10:36:46.826Z,43.10
2018-09-27T10:39:15.026Z,43.19
2018-09-27T10:41:43.734Z,43.74
2018-09-27T10:44:12.175Z,44.15
2018-09-27T10:46:40.667Z,43.81
2018-09-27T10:49:08.846Z,44.17
2018-09-27T10:51:37.074Z,42.19
2018-09-27T10:54:05.273Z,42.34
2018-09-27T10:56:33.545Z,41.21
2018-09-27T10:59:01.748Z,39.19
2018-09-27T11:01:30.026Z,38.22
2018-09-27T11:03:58.345Z,36.36
2018-09-27T11:06:26.645Z,34.84
2018-09-27T11:08:57.845Z,33.17
2018-09-27T11:11:26.200Z,33.03
2018-09-27T11:13:54.493Z,30.50
2018-09-27T11:16:22.733Z,31.45
2018-09-27T11:18:51.006Z,30.55
2018-09-27T11:21:19.274Z,31.58
2018-09-27T11:23:47.546Z,32.66
2018-09-27T11:26:15.846Z,31.55
2018-09-27T11:28:49.426Z,32.38
2018-09-27T11:31:23.054Z,31.91
2018-09-27T11:33:51.275Z,32.17
2018-09-27T11:36:19.608Z,32.05
2018-09-27T11:38:47.627Z,33.42
2018-09-27T11:41:15.916Z,31.00
2018-09-27T11:43:44.026Z,30.61
2018-09-27T11:46:12.375Z,29.93
2018-09-27T11:48:40.626Z,30.13
2018-09-27T11:51:08.914Z,28.47
2018-09-27T11:53:37.146Z,29.08
2018-09-27T11:56:05.435Z,30.35
2018-09-27T11:58:33.654Z,29.84
2018-09-27T12:01:01.983Z,27.71
2018-09-27T12:03:30.334Z,27.76
2018-09-27T12:05:58.592Z,29.20
2018-09-27T12:08:26.814Z,30.17
2018-09-27T12:10:55.106Z,28.34
2018-09-27T12:13:23.341Z,27.84
2018-09-27T12:15:51.567Z,28.90
2018-09-27T12:18:20.506Z,29.72
2018-09-27T12:20:48.986Z,28.21
2018-09-27T12:23:17.227Z,29.01
2018-09-27T12:25:45.577Z,29.11
2018-09-27T12:28:13.849Z,27.07
2018-09-27T12:30:42.006Z,28.84
2018-09-27T12:33:10.354Z,27.90
2018-09-27T12:35:38.565Z,28.36
2018-09-27T12:38:06.914Z,27.64
2018-09-27T12:40:35.209Z,27.66
2018-09-27T12:43:04.045Z,28.17
2018-09-27T12:45:32.265Z,28.36
2018-09-27T12:48:00.625Z,29.16
2018-09-27T12:50:28.874Z,27.25
2018-09-27T12:52:57.186Z,27.86
2018-09-27T12:55:25.305Z,27.11
2018-09-27T12:57:53.625Z,26.71
2018-09-27T13:00:21.834Z,27.31
2018-09-27T13:02:50.835Z,25.99
2018-09-27T13:05:19.045Z,26.78
2018-09-27T13:07:47.886Z,26.10
2018-09-27T13:10:17.037Z,25.65
2018-09-27T13:12:45.519Z,25.93
2018-09-27T13:15:13.887Z,25.46
2018-09-27T13:17:42.151Z,25.30
2018-09-27T13:20:10.420Z,26.85
2018-09-27T13:22:38.888Z,27.05
2018-09-27T13:25:08.314Z,26.67
2018-09-27T13:27:54.445Z,26.49
2018-09-27T13:30:22.773Z,27.51
2018-09-27T13:32:51.137Z,27.43
2018-09-27T13:35:21.005Z,27.10
2018-09-27T13:37:57.046Z,27.32
2018-09-27T13:40:33.065Z,27.96
2018-09-27T13:56:44.467Z,28.16
2018-09-27T13:59:22.477Z,28.17
2018-09-27T14:01:58.826Z,28.28
2018-09-27T14:04:29.514Z,28.35
2018-09-27T14:07:16.095Z,28.77
2018-09-27T14:09:56.187Z,28.13
2018-09-27T14:12:30.705Z,28.66
2018-09-27T14:14:59.854Z,29.98
2018-09-27T14:17:43.054Z,29.78
2018-09-27T14:20:12.933Z,28.33
2018-09-27T14:22:48.573Z,29.15
2018-09-27T14:25:51.705Z,30.12
2018-09-27T14:28:33.513Z,28.45
2018-09-27T14:31:02.273Z,28.86
2018-09-27T14:33:30.864Z,28.33
2018-09-27T14:35:59.284Z,28.55
2018-09-27T14:38:31.472Z,29.22
2018-09-27T14:41:10.024Z,28.54
2018-09-27T14:43:39.604Z,29.66
2018-09-27T14:46:08.152Z,28.52
2018-09-27T14:48:36.514Z,28.53
2018-09-27T14:51:09.792Z,28.95
2018-09-27T14:53:42.077Z,28.56
2018-09-27T15:22:28.021Z,29.78
2018-09-27T15:48:36.230Z,33.18
2018-09-27T15:51:04.626Z,33.72
2018-09-27T15:53:32.826Z,34.12
2018-09-27T15:56:01.235Z,33.59
2018-09-27T15:58:29.520Z,34.79
2018-09-27T16:00:57.999Z,33.37
2018-09-27T21:23:03.674Z,70.01
2018-09-27T21:25:38.703Z,69.89
2018-09-27T21:28:06.864Z,69.40
2018-09-27T21:30:35.165Z,69.78
2018-09-27T21:33:03.586Z,70.10
2018-09-27T21:35:31.985Z,69.16
2018-09-27T21:38:00.337Z,70.61
2018-09-27T21:40:28.497Z,71.00
2018-09-27T21:42:56.657Z,71.03
2018-09-27T21:45:24.886Z,70.47
2018-09-27T21:47:52.978Z,70.86
2018-09-27T21:50:21.390Z,71.03
2018-09-27T21:52:49.456Z,71.10
2018-09-27T21:55:17.455Z,71.48
2018-09-27T21:57:45.757Z,71.28
2018-09-27T22:00:14.110Z,71.95
2018-09-27T22:02:42.229Z,71.48
2018-09-27T22:05:10.438Z,71.23
2018-09-27T22:07:38.712Z,71.41
2018-09-27T22:10:06.746Z,71.84
2018-09-27T22:12:34.776Z,72.51
2018-09-27T22:15:03.134Z,73.15
2018-09-27T22:17:31.293Z,74.18
2018-09-27T22:19:59.646Z,73.35
2018-09-27T22:22:27.649Z,73.04
2018-09-27T22:24:55.699Z,73.34
2018-09-27T22:27:24.177Z,73.44
2018-09-27T22:29:52.346Z,72.74
2018-09-27T22:32:20.324Z,72.47
2018-09-27T22:34:48.316Z,73.66
2018-09-27T22:37:16.338Z,73.85
2018-09-27T22:39:44.506Z,74.03
2018-09-27T22:42:12.516Z,74.00
2018-09-27T22:44:40.665Z,74.09
2018-09-27T22:47:08.753Z,73.46
2018-09-27T22:49:36.981Z,74.38
2018-09-27T22:52:05.210Z,74.77
2018-09-27T22:54:33.390Z,74.55
2018-09-27T22:57:01.394Z,74.99
2018-09-27T22:59:29.394Z,74.84
2018-09-27T23:01:57.578Z,75.41
2018-09-27T23:04:25.731Z,74.81
2018-09-27T23:06:53.786Z,74.80
2018-09-27T23:09:21.851Z,74.87
2018-09-27T23:11:49.818Z,75.13
2018-09-27T23:14:17.850Z,75.71
2018-09-27T23:16:46.288Z,76.12
2018-09-27T23:19:14.384Z,76.41
2018-09-27T23:21:42.393Z,76.42
2018-09-27T23:24:10.362Z,76.54
2018-09-27T23:26:38.448Z,75.84
2018-09-27T23:29:06.443Z,75.38
2018-09-27T23:31:34.648Z,75.50
2018-09-27T23:34:03.100Z,75.54
2018-09-27T23:36:31.138Z,75.24
2018-09-27T23:38:59.156Z,75.42
2018-09-27T23:41:27.161Z,75.88
2018-09-27T23:43:55.126Z,75.64
2018-09-27T23:46:23.143Z,75.47
2018-09-27T23:48:51.163Z,76.37
2018-09-27T23:51:19.114Z,76.14
2018-09-27T23:53:47.317Z,76.79
2018-09-27T23:56:15.591Z,77.20
2018-09-27T23:58:43.836Z,77.26
